Divide, Colorado
Current Conditions -  °F | °C
As of 12:58 PM on Thursday 30 Oct 2014 (Local Time) from KAFF Reporting Station
Clear Clear  
Wind Chill: 56°   Ceiling: Unl
Heat Index: 56°   Visibility: 10mi
Dew Point: 22°   Wind: 8mph
Humidity: 27%   Direction: 180°S
Pressure: 30.38"   Gusts: 20mph
Location:  38.94°N, 105.16°W
Report Text: KAFF 301858Z AUTO 18007G17KT 10SM CLR 14/M05 A3038 RMK AO2 SLP270 T01351055
Loading
Personal Weather Stations






























Interactive Weather Map
Tropical Storm Tracking
New forecast layout! Learn more

10-Day Weather Forecast

Advertisements
Track Severe Weather on mobile